Time;durP1;ratioP1;P1;durP2;ratioP2;P2;SDS_P1;SDS_P2;PMS_P1;PMS_P2;Temp;Humidity;BMP_temperature;BMP_pressure;BME280_temperature;BME280_humidity;BME280_pressure;Samples;Min_cycle;Max_cycle;Signal;HPM_P1;HPM_P2
2023/09/18 00:01:34;;;;;;;21.67;16.92;;;;;;;25.01;69.08;101365.75;4919690;28;20344;-76
2023/09/18 00:04:01;;;;;;;35.90;24.08;;;;;;;25.03;69.27;101372.66;4945115;28;20089;-78
2023/09/18 00:06:28;;;;;;;35.10;24.45;;;;;;;24.93;69.25;101359.50;4948088;28;20062;-80
2023/09/18 00:08:55;;;;;;;37.58;21.10;;;;;;;25.09;69.74;101387.25;4938879;28;20078;-78
2023/09/18 00:11:25;;;;;;;30.67;21.52;;;;;;;25.00;69.40;101339.63;4942353;28;20445;-79
2023/09/18 00:13:57;;;;;;;21.92;16.95;;;;;;;25.28;68.94;101352.94;4939062;28;20275;-80
2023/09/18 00:16:27;;;;;;;28.65;22.45;;;;;;;25.34;68.42;101358.34;4965659;28;20039;-80
2023/09/18 00:18:54;;;;;;;29.42;19.65;;;;;;;25.28;68.95;101380.94;4945879;28;20050;-77
2023/09/18 00:21:21;;;;;;;41.45;24.27;;;;;;;25.22;68.75;101365.53;4941219;28;20106;-75
2023/09/18 00:23:48;;;;;;;36.70;24.08;;;;;;;24.83;69.00;101323.84;4961400;28;20560;-79
2023/09/18 00:26:17;;;;;;;26.75;17.88;;;;;;;25.31;68.55;101353.34;4958080;28;20383;-77
2023/09/18 00:28:49;;;;;;;38.75;24.08;;;;;;;25.13;68.59;101328.72;4964959;28;20054;-79
2023/09/18 00:31:19;;;;;;;40.13;24.65;;;;;;;25.14;69.24;101363.81;4942900;28;20332;-78
2023/09/18 00:33:46;;;;;;;37.28;26.02;;;;;;;24.54;69.41;101276.28;4956675;28;20065;-79
2023/09/18 00:36:16;;;;;;;33.13;25.57;;;;;;;24.56;69.82;101301.31;4939724;28;20352;-78
2023/09/18 00:38:44;;;;;;;36.40;24.70;;;;;;;24.79;70.66;101349.72;4940095;28;20301;-78
2023/09/18 00:41:10;;;;;;;39.42;26.17;;;;;;;24.41;70.71;101314.25;4941911;28;20061;-77
2023/09/18 00:43:37;;;;;;;39.08;25.58;;;;;;;24.57;71.17;101356.47;4949276;28;20490;-77
2023/09/18 00:46:05;;;;;;;34.17;23.95;;;;;;;24.26;71.29;101307.19;4948493;28;20116;-77
2023/09/18 00:48:32;;;;;;;33.55;24.63;;;;;;;24.52;71.35;101333.50;4929276;28;20136;-78
2023/09/18 00:50:58;;;;;;;36.63;25.73;;;;;;;24.52;71.46;101332.66;4942931;28;20375;-78
2023/09/18 00:53:26;;;;;;;34.50;21.80;;;;;;;24.57;71.25;101329.31;4948692;28;20054;-77
2023/09/18 00:55:57;;;;;;;35.80;24.85;;;;;;;24.66;70.98;101325.31;4949232;28;20084;-78
2023/09/18 00:58:25;;;;;;;34.40;22.10;;;;;;;24.68;70.59;101328.66;4931730;28;20381;-81
2023/09/18 01:00:52;;;;;;;25.92;19.00;;;;;;;24.73;70.49;101323.41;4943033;28;20051;-79
2023/09/18 01:03:22;;;;;;;36.08;24.67;;;;;;;24.82;70.24;101326.75;4957333;28;20088;-78
2023/09/18 01:05:50;;;;;;;34.13;24.33;;;;;;;24.82;70.15;101335.72;4941916;28;20137;-78
2023/09/18 01:08:17;;;;;;;33.28;22.50;;;;;;;24.59;70.12;101286.50;4931724;28;20460;-79
2023/09/18 01:11:08;;;;;;;39.58;26.13;;;;;;;24.88;69.80;101312.31;4942987;28;20062;-79
2023/09/18 01:13:51;;;;;;;39.42;25.42;;;;;;;24.72;70.24;101302.75;4919873;28;20552;-79
2023/09/18 01:16:49;;;;;;;41.63;23.77;;;;;;;24.58;71.02;101303.84;4926081;28;20495;-80
2023/09/18 01:19:17;;;;;;;28.35;19.92;;;;;;;24.64;70.92;101314.69;4931583;28;20117;-79
2023/09/18 01:21:48;;;;;;;27.88;20.02;;;;;;;24.61;70.80;101309.66;4910761;28;20118;-77
2023/09/18 01:24:15;;;;;;;33.95;25.23;;;;;;;24.55;70.63;101296.13;4925523;28;20489;-78
2023/09/18 01:26:42;;;;;;;43.33;24.77;;;;;;;24.59;70.79;101300.06;4914320;28;20078;-77
2023/09/18 01:29:09;;;;;;;37.15;26.08;;;;;;;24.31;71.01;101271.28;4920514;28;20122;-77
2023/09/18 01:31:35;;;;;;;38.05;24.70;;;;;;;24.51;71.19;101298.41;4902593;28;20050;-77
2023/09/18 01:34:03;;;;;;;30.42;20.55;;;;;;;24.40;71.30;101264.59;4939052;28;20050;-77
2023/09/18 01:36:30;;;;;;;37.90;26.15;;;;;;;24.62;70.57;101280.66;4940856;28;20490;-80
2023/09/18 01:38:59;;;;;;;45.15;25.85;;;;;;;24.67;70.60;101275.41;4926668;28;20050;-79
2023/09/18 01:41:33;;;;;;;41.50;25.50;;;;;;;24.63;70.64;101287.75;4948881;28;20391;-78
2023/09/18 01:44:02;;;;;;;38.75;28.70;;;;;;;24.10;71.12;101216.25;4949597;28;20315;-80
2023/09/18 01:46:32;;;;;;;47.42;29.67;;;;;;;24.30;71.60;101275.88;4957041;28;20072;-79
2023/09/18 01:49:06;;;;;;;24.80;20.00;;;;;;;24.39;71.89;101300.06;4924215;28;20441;-80
2023/09/18 01:51:36;;;;;;;45.45;30.27;;;;;;;24.29;71.94;101298.63;4920755;28;20348;-80
2023/09/18 01:54:03;;;;;;;44.80;27.98;;;;;;;24.22;71.82;101289.66;4930607;28;20618;-80
2023/09/18 01:56:30;;;;;;;47.75;28.85;;;;;;;24.17;72.04;101296.75;4933347;28;20089;-78
2023/09/18 01:59:02;;;;;;;42.40;28.27;;;;;;;24.00;72.59;101280.91;4943781;28;20042;-81
2023/09/18 02:01:37;;;;;;;43.90;27.63;;;;;;;23.99;73.07;101300.94;4920216;28;20132;-81
2023/09/18 02:04:08;;;;;;;45.75;28.42;;;;;;;23.93;73.43;101301.75;4945042;28;20050;-78
2023/09/18 02:07:02;;;;;;;46.03;28.45;;;;;;;23.88;73.69;101293.41;4962968;28;20050;-80
2023/09/18 02:09:29;;;;;;;45.72;30.10;;;;;;;24.04;73.59;101308.44;4938627;28;20053;-78
2023/09/18 02:11:59;;;;;;;43.13;26.17;;;;;;;24.12;72.82;101304.69;4945864;28;20046;-77
2023/09/18 02:14:26;;;;;;;47.53;29.50;;;;;;;24.01;73.08;101304.28;4968836;28;20487;-78
2023/09/18 02:16:57;;;;;;;42.25;28.10;;;;;;;23.94;73.76;101292.59;4951973;28;20129;-77
2023/09/18 02:19:24;;;;;;;44.45;29.58;;;;;;;23.95;73.88;101305.09;4945466;28;20202;-77
2023/09/18 02:21:51;;;;;;;40.38;27.63;;;;;;;23.33;73.53;101197.88;4947468;28;20081;-78
2023/09/18 02:24:19;;;;;;;43.38;28.48;;;;;;;23.95;73.63;101294.25;4945049;28;20544;-78
2023/09/18 02:26:45;;;;;;;49.63;28.60;;;;;;;23.86;73.85;101284.66;4940578;28;20050;-79
2023/09/18 02:29:14;;;;;;;39.88;28.00;;;;;;;23.87;74.03;101289.88;4946416;28;20137;-77
2023/09/18 02:31:44;;;;;;;47.42;27.73;;;;;;;23.91;73.95;101298.44;4946801;28;20378;-80
2023/09/18 02:34:12;;;;;;;45.40;29.65;;;;;;;23.82;74.07;101281.53;4943923;28;20056;-79
2023/09/18 02:36:47;;;;;;;42.08;27.70;;;;;;;23.52;74.04;101228.72;4899061;28;20666;-79
2023/09/18 02:39:19;;;;;;;48.78;27.75;;;;;;;23.77;73.83;101264.22;4928295;28;20058;-80
2023/09/18 02:41:46;;;;;;;47.65;30.23;;;;;;;23.38;73.89;101206.22;4940746;28;20383;-80
2023/09/18 02:44:13;;;;;;;47.30;28.63;;;;;;;23.91;73.99;101292.16;4940375;28;20469;-78
2023/09/18 02:46:40;;;;;;;37.00;27.75;;;;;;;23.86;74.39;101300.91;4940708;28;20049;-76
2023/09/18 02:49:06;;;;;;;38.28;27.33;;;;;;;23.61;74.44;101238.31;4938736;28;20097;-77
2023/09/18 02:51:43;;;;;;;37.33;26.38;;;;;;;23.78;73.83;101242.31;4932853;28;20134;-79
2023/09/18 02:54:10;;;;;;;45.85;25.55;;;;;;;23.97;73.64;101254.22;4926635;28;20104;-78
2023/09/18 02:56:40;;;;;;;43.13;27.20;;;;;;;23.97;73.29;101235.22;4936237;28;20163;-78
2023/09/18 02:59:09;;;;;;;37.85;24.73;;;;;;;24.04;72.77;101255.03;4919184;28;20073;-80
2023/09/18 03:01:36;;;;;;;43.50;25.02;;;;;;;23.96;72.81;101241.69;4929644;28;20051;-77
2023/09/18 03:04:05;;;;;;;30.20;20.95;;;;;;;23.82;73.04;101210.22;4915173;28;20047;-81
2023/09/18 03:06:32;;;;;;;34.42;22.20;;;;;;;24.19;72.38;101222.25;4917177;28;20133;-79
2023/09/18 03:08:59;;;;;;;30.25;20.58;;;;;;;24.44;71.67;101203.44;4934745;28;20105;-78
2023/09/18 03:11:29;;;;;;;29.70;19.65;;;;;;;24.61;71.04;101178.53;4928652;28;20042;-76
2023/09/18 03:13:57;;;;;;;28.85;19.10;;;;;;;24.67;70.81;101156.81;4933705;28;20058;-77
2023/09/18 03:16:24;;;;;;;25.38;18.83;;;;;;;24.62;70.22;101125.94;4931115;28;20428;-77
2023/09/18 03:18:51;;;;;;;37.22;20.90;;;;;;;24.85;69.93;101169.66;4914821;28;20485;-77
2023/09/18 03:21:21;;;;;;;27.58;18.65;;;;;;;24.78;69.94;101185.13;4889129;28;20587;-78
2023/09/18 03:23:49;;;;;;;26.42;18.30;;;;;;;24.74;69.65;101173.91;4932493;28;20050;-76
2023/09/18 03:26:16;;;;;;;35.67;23.50;;;;;;;24.57;69.10;101151.00;4932075;28;20486;-77
2023/09/18 03:28:43;;;;;;;31.95;19.10;;;;;;;24.59;69.65;101184.19;4939898;28;20454;-77
2023/09/18 03:31:10;;;;;;;30.63;19.23;;;;;;;24.59;69.59;101177.91;4953804;28;20050;-77
2023/09/18 03:33:37;;;;;;;35.28;23.55;;;;;;;24.16;69.46;101116.06;4932356;28;20038;-80
2023/09/18 03:36:04;;;;;;;38.15;21.55;;;;;;;24.08;69.67;101130.72;4944486;28;20057;-77
2023/09/18 03:38:32;;;;;;;38.25;21.90;;;;;;;24.23;70.01;101182.00;4939513;28;20273;-78
2023/09/18 03:41:01;;;;;;;29.58;21.48;;;;;;;24.12;70.47;101174.50;4933796;28;20829;-77
2023/09/18 03:43:34;;;;;;;34.05;22.25;;;;;;;23.89;70.76;101159.53;4936883;28;20058;-79
2023/09/18 03:46:05;;;;;;;24.30;18.42;;;;;;;23.78;71.46;101119.50;4936829;28;20141;-79
2023/09/18 03:48:37;;;;;;;30.52;20.05;;;;;;;23.57;70.57;101050.94;4939631;28;20084;-78
2023/09/18 03:51:08;;;;;;;23.70;16.70;;;;;;;24.34;70.49;101161.50;4945449;28;20660;-77
2023/09/18 03:53:35;;;;;;;30.48;20.95;;;;;;;24.09;69.86;101114.22;4958967;28;20553;-77
2023/09/18 03:56:08;;;;;;;25.00;18.38;;;;;;;24.46;70.19;101148.97;4924069;28;20042;-80
2023/09/18 03:58:49;;;;;;;31.38;19.15;;;;;;;24.19;69.52;101100.19;4908570;28;20091;-77
2023/09/18 04:01:16;;;;;;;39.42;21.73;;;;;;;24.33;68.90;101125.41;4953051;28;20050;-77
2023/09/18 04:03:47;;;;;;;38.53;22.48;;;;;;;23.78;68.73;101049.84;4945365;28;20134;-81
2023/09/18 04:06:15;;;;;;;27.27;18.33;;;;;;;24.42;69.99;101153.97;4931901;28;20117;-77
2023/09/18 04:08:42;;;;;;;37.65;21.50;;;;;;;24.08;68.63;101115.25;4911943;28;20070;-78
2023/09/18 04:11:10;;;;;;;31.02;21.73;;;;;;;24.33;69.06;101176.94;4934229;28;20058;-77
2023/09/18 04:13:37;;;;;;;32.30;21.23;;;;;;;24.03;69.31;101161.19;4914024;28;20043;-77
2023/09/18 04:16:04;;;;;;;31.05;22.58;;;;;;;24.07;69.60;101205.78;4941841;28;20047;-78
2023/09/18 04:18:32;;;;;;;42.55;22.42;;;;;;;23.98;69.93;101192.66;4911943;28;20760;-79
2023/09/18 04:20:59;;;;;;;33.42;21.50;;;;;;;23.43;70.54;101135.97;4932039;28;20054;-79
2023/09/18 04:23:27;;;;;;;37.88;22.65;;;;;;;23.84;70.82;101208.13;4911403;28;20154;-80
2023/09/18 04:25:54;;;;;;;28.20;22.00;;;;;;;23.81;70.91;101195.84;4922349;28;20442;-80
2023/09/18 04:28:22;;;;;;;31.60;23.08;;;;;;;23.84;70.99;101186.44;4938688;28;20057;-80
2023/09/18 04:30:50;;;;;;;35.28;21.77;;;;;;;23.72;71.25;101175.38;4942724;28;20058;-78
2023/09/18 04:33:21;;;;;;;31.52;21.27;;;;;;;23.83;71.10;101201.03;4930442;28;20514;-79
2023/09/18 04:35:52;;;;;;;;;;;;;;;23.78;71.27;101196.22;4926858;28;20124;-80
2023/09/18 04:38:22;;;;;;;35.47;21.27;;;;;;;23.76;71.25;101192.88;4896544;28;20426;-77
2023/09/18 04:40:49;;;;;;;33.17;21.55;;;;;;;23.69;71.49;101202.91;4950690;28;20079;-76
2023/09/18 04:43:16;;;;;;;37.00;21.52;;;;;;;23.77;71.21;101215.44;4931971;28;20062;-78
2023/09/18 04:45:44;;;;;;;35.42;23.15;;;;;;;23.33;71.13;101149.09;4937550;28;20130;-77
2023/09/18 04:48:12;;;;;;;42.40;23.83;;;;;;;23.72;71.27;101210.59;4928514;28;20151;-76
2023/09/18 04:50:38;;;;;;;29.40;20.23;;;;;;;23.76;71.69;101211.03;4931284;28;20050;-76
2023/09/18 04:53:06;;;;;;;37.15;20.70;;;;;;;23.82;71.33;101230.03;4942712;28;20043;-77
2023/09/18 04:55:33;;;;;;;32.20;20.70;;;;;;;23.76;71.23;101208.31;4943783;28;20042;-77
2023/09/18 04:58:00;;;;;;;27.83;18.58;;;;;;;23.62;71.40;101172.25;4939762;28;20438;-79
2023/09/18 05:00:29;;;;;;;35.90;22.27;;;;;;;23.99;70.60;101222.28;4943409;28;20050;-78
2023/09/18 05:02:57;;;;;;;34.53;21.77;;;;;;;23.98;70.29;101238.75;4936824;28;20093;-77
2023/09/18 05:05:24;;;;;;;39.72;22.58;;;;;;;23.77;69.98;101218.97;4950890;28;20038;-79
2023/09/18 05:07:51;;;;;;;36.55;21.52;;;;;;;23.85;70.29;101229.59;4934538;28;20549;-77
2023/09/18 05:10:19;;;;;;;31.48;21.35;;;;;;;23.86;70.74;101222.28;4949545;28;20050;-76
2023/09/18 05:12:46;;;;;;;38.42;22.50;;;;;;;23.76;70.63;101192.06;4944775;28;20042;-78
2023/09/18 05:15:13;;;;;;;43.63;21.63;;;;;;;23.89;70.64;101230.84;4949402;28;20045;-79
2023/09/18 05:17:55;;;;;;;35.80;21.95;;;;;;;23.75;70.34;101203.97;4954027;28;20593;-79
2023/09/18 05:20:24;;;;;;;35.10;21.30;;;;;;;23.85;70.55;101234.19;4959137;28;20506;-78
2023/09/18 05:22:55;;;;;;;37.45;21.15;;;;;;;23.84;70.54;101227.09;4949743;28;20065;-78
2023/09/18 05:25:24;;;;;;;36.55;21.27;;;;;;;23.79;70.75;101232.31;4940550;28;20463;-77
2023/09/18 05:27:56;;;;;;;38.42;21.25;;;;;;;23.78;70.87;101234.19;4957605;28;20129;-78
2023/09/18 05:30:35;;;;;;;34.10;21.70;;;;;;;23.69;70.85;101211.03;4936639;28;20046;-80
2023/09/18 05:33:06;;;;;;;38.92;21.70;;;;;;;23.76;70.93;101227.31;4944664;28;20636;-77
2023/09/18 05:35:39;;;;;;;;;;;;;;;23.75;70.51;101226.47;4941642;28;20051;-79
2023/09/18 05:38:10;;;;;;;32.28;19.35;;;;;;;23.59;70.41;101213.28;4958611;28;19936;-80
2023/09/18 05:40:38;;;;;;;;;;;;;;;23.49;70.35;101197.44;4948753;28;20050;-80
2023/09/18 05:43:06;;;;;;;30.73;19.77;;;;;;;23.70;70.10;101230.81;4961388;28;19939;-78
2023/09/18 05:45:33;;;;;;;34.95;20.65;;;;;;;23.84;69.75;101238.78;4964695;28;20145;-77
2023/09/18 05:48:07;;;;;;;35.65;20.38;;;;;;;23.83;69.50;101247.13;4943106;28;20046;-79
2023/09/18 05:50:36;;;;;;;37.65;19.20;;;;;;;23.86;70.03;101252.09;4942763;28;20116;-80
2023/09/18 05:53:04;;;;;;;33.85;20.80;;;;;;;23.64;69.53;101225.19;4945591;28;20572;-79
2023/09/18 05:55:31;;;;;;;35.65;20.40;;;;;;;23.94;70.08;101260.06;4932675;28;20371;-78
2023/09/18 05:57:59;;;;;;;36.25;20.95;;;;;;;23.88;69.22;101250.03;4949479;28;20053;-80
2023/09/18 06:00:26;;;;;;;36.30;20.35;;;;;;;23.87;69.01;101253.78;4938912;28;20532;-79
2023/09/18 06:02:53;;;;;;;39.58;20.23;;;;;;;23.41;68.97;101170.56;4956911;28;20497;-80
2023/09/18 06:05:24;;;;;;;27.90;20.65;;;;;;;23.97;69.11;101242.53;4960267;28;20398;-77
2023/09/18 06:07:54;;;;;;;31.60;18.58;;;;;;;24.07;69.63;101249.19;4938681;28;20470;-76
2023/09/18 06:10:28;;;;;;;32.40;21.50;;;;;;;23.88;69.25;101201.22;4920257;28;20132;-79
2023/09/18 06:12:56;;;;;;;41.58;21.98;;;;;;;24.15;68.97;101244.59;4960597;28;20113;-77
2023/09/18 06:15:22;;;;;;;41.03;24.77;;;;;;;24.16;69.20;101249.00;4909918;28;20109;-76
2023/09/18 06:17:49;;;;;;;43.78;25.63;;;;;;;24.03;69.13;101234.41;4947053;28;20050;-78
2023/09/18 06:20:17;;;;;;;41.03;24.33;;;;;;;24.21;68.72;101257.31;4948074;28;20054;-78
2023/09/18 06:22:46;;;;;;;31.70;21.35;;;;;;;24.03;69.20;101237.13;4951066;28;20304;-76
2023/09/18 06:25:14;;;;;;;58.65;27.95;;;;;;;24.26;68.82;101257.53;4948531;28;20058;-76
2023/09/18 06:27:42;;;;;;;44.00;26.98;;;;;;;24.31;68.32;101244.16;4941081;28;20064;-77
2023/09/18 06:30:10;;;;;;;37.40;24.70;;;;;;;24.16;68.95;101219.97;4931991;28;20145;-79
2023/09/18 06:32:39;;;;;;;46.28;25.52;;;;;;;24.02;68.87;101183.06;4929749;28;20070;-80
2023/09/18 06:35:08;;;;;;;38.75;25.45;;;;;;;24.39;68.84;101227.63;4951338;28;20046;-80
2023/09/18 06:37:36;;;;;;;51.30;29.65;;;;;;;24.41;68.88;101227.44;4952180;28;20050;-77
2023/09/18 06:40:06;;;;;;;43.08;27.58;;;;;;;24.45;68.28;101215.94;4940853;28;20257;-82
2023/09/18 06:42:33;;;;;;;40.28;25.95;;;;;;;24.39;68.14;101205.94;4964906;28;20121;-81
2023/09/18 06:45:01;;;;;;;51.58;29.95;;;;;;;24.33;68.16;101205.97;4935348;28;20401;-80
2023/09/18 06:47:28;;;;;;;47.28;27.42;;;;;;;24.42;68.68;101224.50;4922685;28;20825;-81
2023/09/18 06:49:55;;;;;;;48.63;28.42;;;;;;;24.30;68.55;101202.63;4936336;28;20047;-78
2023/09/18 06:52:22;;;;;;;48.55;28.13;;;;;;;24.39;68.80;101208.63;4946899;28;20070;-78
2023/09/18 06:54:49;;;;;;;41.28;23.45;;;;;;;24.46;68.97;101205.94;4965147;28;20126;-79
2023/09/18 06:57:15;;;;;;;49.05;29.92;;;;;;;24.49;69.14;101191.94;4961703;28;20293;-77
2023/09/18 06:59:42;;;;;;;53.53;29.63;;;;;;;24.34;68.83;101172.34;4939954;28;20046;-81
2023/09/18 07:02:10;;;;;;;52.88;29.25;;;;;;;24.67;68.01;101212.97;4934888;28;20293;-79
2023/09/18 07:04:44;;;;;;;52.35;29.17;;;;;;;24.63;68.22;101203.59;4917135;28;20088;-80
2023/09/18 07:07:13;;;;;;;58.40;31.60;;;;;;;24.53;68.25;101188.59;4925213;28;20049;-78
2023/09/18 07:09:41;;;;;;;51.10;31.52;;;;;;;24.55;68.17;101195.69;4943712;28;20321;-77
2023/09/18 07:12:28;;;;;;;57.70;31.48;;;;;;;24.31;68.23;101170.91;4928423;28;20043;-77
2023/09/18 07:14:55;;;;;;;52.88;31.05;;;;;;;24.61;67.51;101211.94;4921307;28;20043;-80
2023/09/18 07:17:22;;;;;;;53.15;30.20;;;;;;;24.68;67.69;101239.91;4927662;28;20042;-79
2023/09/18 07:19:50;;;;;;;64.25;36.08;;;;;;;24.64;67.95;101238.69;4929141;28;20235;-77
2023/09/18 07:22:16;;;;;;;40.95;25.15;;;;;;;24.49;67.76;101211.78;4920591;28;20042;-77
2023/09/18 07:24:46;;;;;;;57.10;32.53;;;;;;;24.74;68.25;101238.22;4930410;28;20057;-77
2023/09/18 07:27:14;;;;;;;43.50;25.98;;;;;;;24.67;68.01;101229.28;4927786;28;20054;-77
2023/09/18 07:29:41;;;;;;;63.83;39.13;;;;;;;24.73;67.67;101231.09;4934883;28;20469;-81
2023/09/18 07:32:09;;;;;;;44.67;28.38;;;;;;;24.62;67.99;101220.94;4943853;28;20114;-78
2023/09/18 07:34:36;;;;;;;60.17;33.13;;;;;;;24.88;68.26;101239.84;4928383;28;20082;-80
2023/09/18 07:37:03;;;;;;;69.47;38.58;;;;;;;24.86;67.76;101233.78;4930267;28;20051;-79
2023/09/18 07:39:30;;;;;;;67.03;38.28;;;;;;;24.84;67.79;101238.59;4935615;28;20174;-78
2023/09/18 07:41:57;;;;;;;32.08;21.52;;;;;;;24.80;68.42;101220.22;4919919;28;20042;-80
2023/09/18 07:44:24;;;;;;;45.28;25.45;;;;;;;24.83;67.72;101203.50;4947737;28;20360;-81
2023/09/18 07:46:51;;;;;;;61.53;39.78;;;;;;;25.05;67.96;101228.47;4927549;28;20121;-79
2023/09/18 07:49:18;;;;;;;58.17;34.83;;;;;;;25.00;67.70;101220.97;4926934;28;20058;-80
2023/09/18 07:51:45;;;;;;;71.22;41.17;;;;;;;25.03;67.29;101219.72;4931831;28;20085;-79
2023/09/18 07:54:14;;;;;;;70.57;39.90;;;;;;;25.12;67.22;101226.53;4910735;28;20287;-78
2023/09/18 07:56:43;;;;;;;71.35;39.50;;;;;;;25.15;66.85;101235.09;4924451;28;20864;-76
2023/09/18 07:59:10;;;;;;;34.38;24.33;;;;;;;25.20;66.53;101242.63;4932523;28;20834;-78
2023/09/18 08:01:37;;;;;;;76.93;42.92;;;;;;;24.99;66.94;101213.03;4932022;28;20059;-80
2023/09/18 08:04:05;;;;;;;31.90;21.85;;;;;;;25.14;67.32;101248.88;4946784;28;20532;-78
2023/09/18 08:06:32;;;;;;;69.45;42.90;;;;;;;25.05;66.92;101233.88;4951224;28;20050;-78
2023/09/18 08:09:00;;;;;;;64.63;36.42;;;;;;;25.19;67.19;101249.09;4952825;28;20085;-78
2023/09/18 08:11:27;;;;;;;56.40;30.23;;;;;;;25.22;67.13;101236.97;4960237;28;20096;-77
2023/09/18 08:13:54;;;;;;;70.05;40.67;;;;;;;25.24;66.23;101237.56;4968767;28;20145;-78
2023/09/18 08:16:21;;;;;;;32.35;20.55;;;;;;;25.22;66.56;101231.53;4943847;28;20042;-78
2023/09/18 08:18:48;;;;;;;67.22;40.78;;;;;;;25.24;66.86;101243.84;4957428;28;20039;-76
2023/09/18 08:21:16;;;;;;;50.35;30.45;;;;;;;25.20;66.67;101226.34;4939036;28;20069;-79
2023/09/18 08:23:43;;;;;;;46.42;28.05;;;;;;;25.27;66.99;101229.84;4951928;28;20050;-77
2023/09/18 08:26:10;;;;;;;43.17;26.65;;;;;;;25.11;66.78;101184.13;4958414;28;20105;-79
2023/09/18 08:28:43;;;;;;;70.03;41.22;;;;;;;25.21;65.96;101203.53;4953229;28;20046;-78
2023/09/18 08:31:10;;;;;;;36.95;20.52;;;;;;;25.26;66.42;101187.41;4964355;28;20081;-78
2023/09/18 08:33:37;;;;;;;36.45;24.08;;;;;;;25.47;66.38;101209.84;4965904;28;20125;-78
2023/09/18 08:36:04;;;;;;;76.38;43.90;;;;;;;25.52;65.36;101213.56;4965639;28;20043;-80
2023/09/18 08:38:31;;;;;;;54.92;34.28;;;;;;;25.43;66.35;101197.75;4946083;28;20066;-78
2023/09/18 08:40:59;;;;;;;42.05;28.45;;;;;;;25.62;65.78;101202.19;4951273;28;20058;-81
2023/09/18 08:43:26;;;;;;;53.10;29.02;;;;;;;25.71;65.45;101189.16;4969114;28;20046;-78
2023/09/18 08:45:55;;;;;;;38.33;20.50;;;;;;;25.67;65.38;101177.88;4951080;28;20093;-79
2023/09/18 08:48:25;;;;;;;62.67;38.65;;;;;;;25.71;65.46;101206.31;4949968;28;20379;-79
2023/09/18 08:50:52;;;;;;;36.45;22.35;;;;;;;25.66;65.76;101202.59;4969242;28;20493;-78
2023/09/18 08:53:21;;;;;;;71.65;42.45;;;;;;;25.66;65.60;101197.97;4969519;28;20046;-80
2023/09/18 08:55:48;;;;;;;60.25;35.10;;;;;;;25.63;65.36;101205.75;4949757;28;20124;-81
2023/09/18 08:58:19;;;;;;;75.25;40.97;;;;;;;25.68;65.48;101211.34;4957218;28;20054;-80
2023/09/18 09:00:46;;;;;;;78.38;43.10;;;;;;;25.66;65.45;101208.88;4970534;28;20258;-79
2023/09/18 09:03:14;;;;;;;30.45;20.23;;;;;;;25.70;65.58;101215.50;4931943;28;20418;-77
2023/09/18 09:05:41;;;;;;;25.33;17.38;;;;;;;25.56;65.55;101181.34;4928353;29;20577;-81
2023/09/18 09:08:08;;;;;;;66.35;41.13;;;;;;;25.77;65.63;101208.13;4931826;28;20578;-80
2023/09/18 09:10:35;;;;;;;23.17;17.50;;;;;;;25.62;65.58;101180.44;4930185;28;20043;-79
2023/09/18 09:13:02;;;;;;;48.05;29.50;;;;;;;25.89;65.76;101216.41;4925250;28;20050;-80
2023/09/18 09:15:46;;;;;;;71.13;43.78;;;;;;;25.82;65.09;101201.19;4929983;28;20070;-79
2023/09/18 09:18:17;;;;;;;36.72;24.60;;;;;;;25.75;65.22;101193.94;4928435;28;20053;-78
2023/09/18 09:21:13;;;;;;;59.10;37.65;;;;;;;25.97;64.93;101215.28;4937719;28;20054;-77
2023/09/18 09:23:53;;;;;;;41.90;26.25;;;;;;;25.90;65.19;101203.66;4916491;28;20132;-77
2023/09/18 09:26:28;;;;;;;37.40;23.88;;;;;;;25.91;64.85;101189.00;4928483;28;20465;-79
2023/09/18 09:29:13;;;;;;;29.13;19.35;;;;;;;26.04;65.12;101204.38;4941299;28;20105;-81
2023/09/18 09:31:40;;;;;;;27.13;18.65;;;;;;;26.01;65.13;101194.75;4944497;28;20072;-80
2023/09/18 09:34:08;;;;;;;54.40;32.17;;;;;;;26.13;64.75;101213.91;4948482;28;20058;-81
2023/09/18 09:36:35;;;;;;;65.25;38.35;;;;;;;26.03;65.17;101191.81;4927310;28;20130;-75
2023/09/18 09:39:05;;;;;;;22.98;18.40;;;;;;;26.01;65.12;101198.31;4926336;28;20055;-79
2023/09/18 09:41:33;;;;;;;33.28;20.67;;;;;;;25.97;65.50;101183.50;4922144;28;20549;-79
2023/09/18 09:44:00;;;;;;;27.70;20.33;;;;;;;25.98;65.11;101176.19;4927702;28;20039;-78
2023/09/18 09:46:27;;;;;;;80.95;40.70;;;;;;;26.13;65.12;101187.53;4921884;28;20046;-80
2023/09/18 09:49:04;;;;;;;36.00;22.75;;;;;;;26.12;64.59;101176.84;4929759;28;20172;-78
2023/09/18 09:51:33;;;;;;;34.83;22.95;;;;;;;26.12;64.57;101164.09;4941560;28;20478;-76
2023/09/18 09:54:01;;;;;;;30.40;20.00;;;;;;;25.96;64.60;101154.63;4930724;28;20486;-80
2023/09/18 09:56:53;;;;;;;38.30;26.20;;;;;;;25.65;63.73;101109.31;4940837;28;20182;-78
2023/09/18 09:59:21;;;;;;;56.13;33.75;;;;;;;25.99;63.60;101175.94;4922807;28;20549;-79
2023/09/18 10:01:50;;;;;;;64.63;40.60;;;;;;;26.01;63.33;101197.47;4923629;28;20043;-80
2023/09/18 10:04:19;;;;;;;71.13;36.00;;;;;;;26.03;63.30;101203.53;4919977;28;20054;-81
2023/09/18 10:06:58;;;;;;;47.40;25.55;;;;;;;26.08;63.61;101205.59;4924257;28;20358;-77
2023/09/18 10:09:28;;;;;;;56.28;33.17;;;;;;;25.78;63.16;101146.44;4927185;28;20545;-78
2023/09/18 10:11:58;;;;;;;25.52;18.23;;;;;;;26.09;63.67;101197.19;4929684;28;20051;-79
2023/09/18 10:14:34;;;;;;;32.63;20.10;;;;;;;26.06;63.92;101178.59;4927010;28;20043;-80
2023/09/18 10:17:21;;;;;;;24.88;18.05;;;;;;;26.04;64.08;101153.50;4948919;28;20047;-80
2023/09/18 10:20:16;;;;;;;55.63;33.38;;;;;;;26.28;63.84;101178.16;4925327;28;20146;-80
2023/09/18 10:22:49;;;;;;;36.28;23.10;;;;;;;26.22;63.60;101178.00;4926022;28;20055;-78
2023/09/18 10:25:27;;;;;;;56.13;31.27;;;;;;;26.21;63.54;101181.81;4945470;28;20356;-78
2023/09/18 10:27:58;;;;;;;22.88;18.10;;;;;;;26.30;63.67;101157.00;4944715;28;20051;-74
2023/09/18 10:30:34;;;;;;;34.75;19.55;;;;;;;26.22;63.65;101139.91;4943586;28;20252;-78
2023/09/18 10:33:02;;;;;;;31.30;21.92;;;;;;;26.26;63.44;101140.28;4921087;28;20035;-77
2023/09/18 10:35:30;;;;;;;47.72;26.70;;;;;;;26.30;63.17;101146.94;4926593;28;20047;-80
2023/09/18 10:37:59;;;;;;;33.38;18.65;;;;;;;26.46;62.79;101159.09;4920066;28;20474;-78
2023/09/18 10:40:28;;;;;;;41.17;23.60;;;;;;;26.38;62.89;101151.22;4921021;28;20035;-80
2023/09/18 10:43:02;;;;;;;42.25;24.80;;;;;;;26.39;62.87;101131.97;4927409;28;20046;-80
2023/09/18 10:45:30;;;;;;;46.40;27.92;;;;;;;26.36;62.98;101120.69;4923941;28;20488;-81
2023/09/18 10:48:00;;;;;;;44.60;23.80;;;;;;;26.21;62.99;101115.63;4913588;28;20082;-78
2023/09/18 10:50:29;;;;;;;28.77;20.92;;;;;;;26.27;63.21;101128.34;4930903;28;20050;-78
2023/09/18 10:52:59;;;;;;;41.55;26.70;;;;;;;26.41;63.28;101118.13;4925273;28;20047;-79
2023/09/18 10:55:27;;;;;;;44.25;26.25;;;;;;;26.34;63.19;101118.22;4939864;28;20073;-81
2023/09/18 10:57:57;;;;;;;62.88;31.95;;;;;;;26.16;63.48;101091.81;4928939;28;20498;-77
2023/09/18 11:00:25;;;;;;;47.35;28.48;;;;;;;26.26;63.40;101082.31;4931111;28;20410;-78
2023/09/18 11:02:52;;;;;;;41.17;26.80;;;;;;;26.37;63.29;101103.31;4939805;28;20050;-78
2023/09/18 11:05:34;;;;;;;43.50;24.25;;;;;;;26.30;63.41;101094.41;4943585;28;20214;-79
2023/09/18 11:08:24;;;;;;;56.30;33.65;;;;;;;26.28;63.51;101118.28;4950233;28;20058;-81
2023/09/18 11:11:09;;;;;;;35.42;23.42;;;;;;;26.27;63.50;101114.75;4948962;28;20052;-79
2023/09/18 11:13:56;;;;;;;47.45;28.52;;;;;;;26.16;63.38;101102.72;4946758;28;20053;-77
2023/09/18 11:16:26;;;;;;;40.35;26.38;;;;;;;26.17;63.18;101090.78;4933603;28;20640;-79
2023/09/18 11:19:04;;;;;;;26.17;16.53;;;;;;;26.34;63.30;101123.66;4952720;28;20449;-82
2023/09/18 11:21:36;;;;;;;35.00;21.05;;;;;;;26.43;63.10;101124.16;4973052;28;20104;-81